Lander, WY (82520)

11:30 AM MST on December 03, 2016 (GMT -0700)
ASOS_HFM | | Change Station

Elev 5557 ft 42.82 °N, 108.73 °W | Updated 55 minutes ago

Clear
Clear
27 °F
Feels Like 27 °F
N
3
Wind Variable Wind from NW
Gusts 0.0 mph

Today
High -- | Low -- °F
--% Chance of Precip.
Yesterday
High -- | Low -- °F
Precip. -- in
Pressure 30.11 in
Visibility 10.0 miles
Clouds Clear
Windchill 27 °F
Dew Point 7 °F
Humidity 42%
Rainfall in
Snow Depth Not available.
7:28 AM 4:41 PM
Waxing Crescent, 16% visible
METAR KLND 031753Z AUTO 29004KT 10SM CLR M03/M13 A2999 RMK AO2 SLP196 T10281133 11028 21117 51006
Pressure 30.11 in
Visibility 10.0 miles
Clouds Clear
Windchill 27 °F
Dew Point 7 °F
Humidity 42%
Rainfall in
Snow Depth Not available.
7:28 AM 4:41 PM
Waxing Crescent, 16% visible
METAR KLND 031753Z AUTO 29004KT 10SM CLR M03/M13 A2999 RMK AO2 SLP196 T10281133 11028 21117 51006

10-Day Weather Forecast

Almanac

Astronomy

Dec. 03, 2016 Rise Set
Actual Time
Civil Twilight
Nautical Twilight
Astronomical Twilight
Moon
Length of Visible Light
Length of Day
Tomorrow will be .
, % of the Moon is Illuminated

Today's Extremes

State Highs State Lows

Community

WunderPhotos

Upload Photos

1,955,457 photos uploaded!

WunderBlog® & News

Nearby

Air Quality

  Air Quality AQ Index Pollutant
Not available.

Snow Depth

Station Depth Elevation

Earthquake Activity

City Distance Mag. Time & Date
Minimum magnitude displayed is 2.5.

Coastal Water Temperatures

Place Temperature

Stations

Nearby Weather Stations

Station Location Temp. Windchill Dew Point Humidity Wind Precip. Elev Updated Type
                   

Watches & Warnings

There are currently no watches in effect.